^^
Station Historical Data
Daily Summary for June 16, 2017 Units:  Both    English   Metric
« Previous Day
Next Day »
Daily Weekly Monthly Yearly Custom
  High: Low: Average:
Temperature: 73.2 °F /  22.9 °C 41.9 °F /  5.5 °C 57 °F /  13.9 °C
Dew Point: 36.9 °F /  2.7 °C 29.7 °F /  -1.3 °C 31.9 °F /  -0.1 °C
Humidity: 65% 22% 41%
Wind Speed: 6.0mph /  9.7km/h - 0.3mph /  0.5km/h
Wind Gust: 9.0mph /  14.5km/h - -
Wind- - South
Pressure: 30.37 in /  1028.3 hPa 30.25 in /  1024.3 hPa -
Precipitation: 0.00 in /  0 mm    
Historical Graphs
 
 
Tabular Data for June 16, 2017
Time Temperature Dew Point Pressure Wind Wind Speed Wind Gust Humidity Rainfall Rate (Hourly) solar Conditions
00:02 46.9 °F /  8.3 °C 30.7 °F /  -0.7 °C 30.32in /  1026.6hPa Calm     53% 0.00in /  0mm 0.0 W/m2
00:08 46.8 °F /  8.2 °C 30.9 °F /  -0.6 °C 30.32in /  1026.6hPa Calm     54% 0.00in /  0mm 0.0 W/m2
00:14 46.6 °F /  8.1 °C 30.7 °F /  -0.7 °C 30.32in /  1026.6hPa Calm     54% 0.00in /  0mm 0.0 W/m2
00:20 46.6 °F /  8.1 °C 30.7 °F /  -0.7 °C 30.32in /  1026.6hPa Calm     54% 0.00in /  0mm 0.0 W/m2
00:26 46.2 °F /  7.9 °C 30.9 °F /  -0.6 °C 30.32in /  1026.6hPa Calm     55% 0.00in /  0mm 0.0 W/m2
00:32 46.2 °F /  7.9 °C 30.9 °F /  -0.6 °C 30.32in /  1026.6hPa Calm     55% 0.00in /  0mm 0.0 W/m2
00:39 46.0 °F /  7.8 °C 30.7 °F /  -0.7 °C 30.32in /  1026.6hPa Calm     55% 0.00in /  0mm 0.0 W/m2
00:45 45.9 °F /  7.7 °C 31.1 °F /  -0.5 °C 30.32in /  1026.6hPa Calm     56% 0.00in /  0mm 0.0 W/m2
00:51 45.7 °F /  7.6 °C 30.4 °F /  -0.9 °C 30.32in /  1026.6hPa Calm     55% 0.00in /  0mm 0.0 W/m2
00:57 45.7 °F /  7.6 °C 30.9 °F /  -0.6 °C 30.32in /  1026.6hPa Calm     56% 0.00in /  0mm 0.0 W/m2
01:03 45.3 °F /  7.4 °C 30.9 °F /  -0.6 °C 30.32in /  1026.6hPa Calm     57% 0.00in /  0mm 0.0 W/m2
01:09 45.1 °F /  7.3 °C 30.7 °F /  -0.7 °C 30.32in /  1026.6hPa Calm     57% 0.00in /  0mm 0.0 W/m2
01:15 45.0 °F /  7.2 °C 30.2 °F /  -1 °C 30.33in /  1027hPa Calm     56% 0.00in /  0mm 0.0 W/m2
01:22 44.8 °F /  7.1 °C 30.0 °F /  -1.1 °C 30.33in /  1027hPa Calm     56% 0.00in /  0mm 0.0 W/m2
01:28 44.8 °F /  7.1 °C 30.6 °F /  -0.8 °C 30.32in /  1026.6hPa Calm     57% 0.00in /  0mm 0.0 W/m2
01:34 44.4 °F /  6.9 °C 30.2 °F /  -1 °C 30.33in /  1027hPa Calm     57% 0.00in /  0mm 0.0 W/m2
01:40 44.4 °F /  6.9 °C 30.6 °F /  -0.8 °C 30.32in /  1026.6hPa Calm     58% 0.00in /  0mm 0.0 W/m2
01:46 44.2 °F /  6.8 °C 30.4 °F /  -0.9 °C 30.33in /  1027hPa Calm     58% 0.00in /  0mm 0.0 W/m2
01:52 44.2 °F /  6.8 °C 30.4 °F /  -0.9 °C 30.32in /  1026.6hPa Calm     58% 0.00in /  0mm 0.0 W/m2
01:58 44.2 °F /  6.8 °C 30.4 °F /  -0.9 °C 30.32in /  1026.6hPa Calm     58% 0.00in /  0mm 0.0 W/m2
02:04 44.2 °F /  6.8 °C 30.7 °F /  -0.7 °C 30.32in /  1026.6hPa Calm     59% 0.00in /  0mm 0.0 W/m2
02:11 44.1 °F /  6.7 °C 30.2 °F /  -1 °C 30.32in /  1026.6hPa Calm     58% 0.00in /  0mm 0.0 W/m2
02:17 44.1 °F /  6.7 °C 30.7 °F /  -0.7 °C 30.32in /  1026.6hPa Calm     59% 0.00in /  0mm 0.0 W/m2
02:23 43.9 °F /  6.6 °C 30.6 °F /  -0.8 °C 30.32in /  1026.6hPa Calm     59% 0.00in /  0mm 0.0 W/m2
02:29 43.9 °F /  6.6 °C 30.9 °F /  -0.6 °C 30.32in /  1026.6hPa Calm     60% 0.00in /  0mm 0.0 W/m2
02:35 43.7 °F /  6.5 °C 30.7 °F /  -0.7 °C 30.32in /  1026.6hPa Calm     60% 0.00in /  0mm 0.0 W/m2
02:41 43.7 °F /  6.5 °C 30.7 °F /  -0.7 °C 30.32in /  1026.6hPa Calm     60% 0.00in /  0mm 0.0 W/m2
02:47 43.5 °F /  6.4 °C 30.6 °F /  -0.8 °C 30.32in /  1026.6hPa Calm     60% 0.00in /  0mm 0.0 W/m2
02:54 43.5 °F /  6.4 °C 30.6 °F /  -0.8 °C 30.32in /  1026.6hPa Calm     60% 0.00in /  0mm 0.0 W/m2
03:00 43.5 °F /  6.4 °C 30.9 °F /  -0.6 °C 30.32in /  1026.6hPa Calm     61% 0.00in /  0mm 0.0 W/m2
03:06 43.3 °F /  6.3 °C 30.7 °F /  -0.7 °C 30.32in /  1026.6hPa Calm     61% 0.00in /  0mm 0.0 W/m2
03:12 43.2 °F /  6.2 °C 30.2 °F /  -1 °C 30.32in /  1026.6hPa Calm     60% 0.00in /  0mm 0.0 W/m2
03:18 43.0 °F /  6.1 °C 30.4 °F /  -0.9 °C 30.32in /  1026.6hPa Calm     61% 0.00in /  0mm 0.0 W/m2
03:24 43.0 °F /  6.1 °C 30.4 °F /  -0.9 °C 30.32in /  1026.6hPa Calm     61% 0.00in /  0mm 0.0 W/m2
03:30 42.6 °F /  5.9 °C 30.2 °F /  -1 °C 30.32in /  1026.6hPa Calm     61% 0.00in /  0mm 0.0 W/m2
03:36 42.6 °F /  5.9 °C 30.6 °F /  -0.8 °C 30.32in /  1026.6hPa Calm     62% 0.00in /  0mm 0.0 W/m2
03:43 42.4 °F /  5.8 °C 30.4 °F /  -0.9 °C 30.32in /  1026.6hPa Calm     62% 0.00in /  0mm 0.0 W/m2
03:49 42.3 °F /  5.7 °C 30.2 °F /  -1 °C 30.32in /  1026.6hPa Calm     62% 0.00in /  0mm 0.0 W/m2
03:55 42.3 °F /  5.7 °C 30.2 °F /  -1 °C 30.32in /  1026.6hPa Calm     62% 0.00in /  0mm 0.0 W/m2
04:01 42.1 °F /  5.6 °C 30.4 °F /  -0.9 °C 30.32in /  1026.6hPa Calm     63% 0.00in /  0mm 0.0 W/m2
04:07 42.1 °F /  5.6 °C 30.7 °F /  -0.7 °C 30.32in /  1026.6hPa Calm     64% 0.00in /  0mm 0.0 W/m2
04:13 42.1 °F /  5.6 °C 30.7 °F /  -0.7 °C 30.32in /  1026.6hPa Calm     64% 0.00in /  0mm 0.0 W/m2
04:20 41.9 °F /  5.5 °C 30.9 °F /  -0.6 °C 30.32in /  1026.6hPa Calm     65% 0.00in /  0mm 0.0 W/m2
04:26 42.1 °F /  5.6 °C 30.7 °F /  -0.7 °C 30.32in /  1026.6hPa Calm     64% 0.00in /  0mm 0.0 W/m2
04:36 42.3 °F /  5.7 °C 30.9 °F /  -0.6 °C 30.32in /  1026.6hPa Calm     64% 0.00in /  0mm 0.0 W/m2
04:42 42.3 °F /  5.7 °C 30.9 °F /  -0.6 °C 30.32in /  1026.6hPa Calm     64% 0.00in /  0mm 0.0 W/m2
04:49 42.3 °F /  5.7 °C 30.9 °F /  -0.6 °C 30.32in /  1026.6hPa Calm     64% 0.00in /  0mm 0.0 W/m2
04:54 42.4 °F /  5.8 °C 31.1 °F /  -0.5 °C 30.32in /  1026.6hPa Calm     64% 0.00in /  0mm 0.0 W/m2
05:01 42.4 °F /  5.8 °C 30.7 °F /  -0.7 °C 30.32in /  1026.6hPa Calm     63% 0.00in /  0mm 0.0 W/m2
05:09 42.4 °F /  5.8 °C 30.7 °F /  -0.7 °C 30.32in /  1026.6hPa Calm     63% 0.00in /  0mm 0.0 W/m2
05:15 42.4 °F /  5.8 °C 30.7 °F /  -0.7 °C 30.32in /  1026.6hPa Calm     63% 0.00in /  0mm 0.0 W/m2
05:21 42.4 °F /  5.8 °C 30.4 °F /  -0.9 °C 30.32in /  1026.6hPa Calm     62% 0.00in /  0mm 0.0 W/m2
05:27 42.8 °F /  6 °C 31.1 °F /  -0.5 °C 30.32in /  1026.6hPa Calm     63% 0.00in /  0mm 0.0 W/m2
05:33 43.2 °F /  6.2 °C 30.6 °F /  -0.8 °C 30.32in /  1026.6hPa Calm   1.0mph /  1.6km/h 61% 0.00in /  0mm 0.0 W/m2
05:39 43.9 °F /  6.6 °C 30.6 °F /  -0.8 °C 30.32in /  1026.6hPa Calm   4.0mph /  6.4km/h 59% 0.00in /  0mm 0.0 W/m2
05:45 44.8 °F /  7.1 °C 30.9 °F /  -0.6 °C 30.32in /  1026.6hPa Calm   5.0mph /  8km/h 58% 0.00in /  0mm 0.0 W/m2
05:51 45.7 °F /  7.6 °C 30.9 °F /  -0.6 °C 30.32in /  1026.6hPa Calm   2.0mph /  3.2km/h 56% 0.00in /  0mm 0.0 W/m2
05:58 46.2 °F /  7.9 °C 30.6 °F /  -0.8 °C 30.32in /  1026.6hPa Calm   4.0mph /  6.4km/h 54% 0.00in /  0mm 0.0 W/m2
06:03 46.9 °F /  8.3 °C 30.2 °F /  -1 °C 30.33in /  1027hPa ENE 2.0mph /  3.2km/h 2.0mph /  3.2km/h 52% 0.00in /  0mm 0.0 W/m2
06:09 47.5 °F /  8.6 °C 30.2 °F /  -1 °C 30.33in /  1027hPa Calm   5.0mph /  8km/h 51% 0.00in /  0mm 0.0 W/m2
06:15 47.8 °F /  8.8 °C 30.6 °F /  -0.8 °C 30.33in /  1027hPa Calm   5.0mph /  8km/h 51% 0.00in /  0mm 0.0 W/m2
06:21 48.2 °F /  9 °C 30.4 °F /  -0.9 °C 30.33in /  1027hPa Calm   3.0mph /  4.8km/h 50% 0.00in /  0mm 0.0 W/m2
06:27 48.4 °F /  9.1 °C 30.6 °F /  -0.8 °C 30.34in /  1027.3hPa ENE 2.0mph /  3.2km/h 5.0mph /  8km/h 50% 0.00in /  0mm 0.0 W/m2
06:33 48.6 °F /  9.2 °C 30.2 °F /  -1 °C 30.33in /  1027hPa Calm   2.0mph /  3.2km/h 49% 0.00in /  0mm 5.0 W/m2
06:40 48.6 °F /  9.2 °C 30.2 °F /  -1 °C 30.34in /  1027.3hPa Calm   3.0mph /  4.8km/h 49% 0.00in /  0mm 7.0 W/m2
06:46 48.6 °F /  9.2 °C 30.2 °F /  -1 °C 30.34in /  1027.3hPa Calm     49% 0.00in /  0mm 9.0 W/m2
06:51 48.6 °F /  9.2 °C 29.8 °F /  -1.2 °C 30.34in /  1027.3hPa Calm   4.0mph /  6.4km/h 48% 0.00in /  0mm 11.0 W/m2
06:58 48.7 °F /  9.3 °C 29.8 °F /  -1.2 °C 30.34in /  1027.3hPa Calm   3.0mph /  4.8km/h 48% 0.00in /  0mm 12.0 W/m2
07:04 48.7 °F /  9.3 °C 29.8 °F /  -1.2 °C 30.35in /  1027.7hPa Calm   1.0mph /  1.6km/h 48% 0.00in /  0mm 14.0 W/m2
07:10 48.9 °F /  9.4 °C 29.7 °F /  -1.3 °C 30.35in /  1027.7hPa Calm   3.0mph /  4.8km/h 47% 0.00in /  0mm 16.0 W/m2
07:16 49.5 °F /  9.7 °C 30.0 °F /  -1.1 °C 30.35in /  1027.7hPa Calm   3.0mph /  4.8km/h 47% 0.00in /  0mm 18.0 W/m2
07:22 50.0 °F /  10 °C 30.6 °F /  -0.8 °C 30.36in /  1028hPa Calm     47% 0.00in /  0mm 19.0 W/m2
07:28 50.2 °F /  10.1 °C 30.2 °F /  -1 °C 30.36in /  1028hPa Calm     46% 0.00in /  0mm 19.0 W/m2
07:34 50.5 °F /  10.3 °C 30.0 °F /  -1.1 °C 30.36in /  1028hPa Calm   5.0mph /  8km/h 45% 0.00in /  0mm 21.0 W/m2
07:40 51.1 °F /  10.6 °C 30.6 °F /  -0.8 °C 30.36in /  1028hPa Calm   1.0mph /  1.6km/h 45% 0.00in /  0mm 23.0 W/m2
07:46 51.3 °F /  10.7 °C 30.6 °F /  -0.8 °C 30.37in /  1028.3hPa Calm     45% 0.00in /  0mm 28.0 W/m2
07:52 51.8 °F /  11 °C 30.6 °F /  -0.8 °C 30.37in /  1028.3hPa Calm     44% 0.00in /  0mm 148.0 W/m2
07:58 52.7 °F /  11.5 °C 30.7 °F /  -0.7 °C 30.37in /  1028.3hPa Calm     43% 0.00in /  0mm 258.0 W/m2
08:04 54.1 °F /  12.3 °C 30.9 °F /  -0.6 °C 30.37in /  1028.3hPa Calm   3.0mph /  4.8km/h 41% 0.00in /  0mm 283.0 W/m2
08:10 55.2 °F /  12.9 °C 31.3 °F /  -0.4 °C 30.37in /  1028.3hPa Calm   2.0mph /  3.2km/h 40% 0.00in /  0mm 302.0 W/m2
08:16 56.5 °F /  13.6 °C 31.1 °F /  -0.5 °C 30.37in /  1028.3hPa Calm   5.0mph /  8km/h 38% 0.00in /  0mm 322.0 W/m2
08:22 57.4 °F /  14.1 °C 31.3 °F /  -0.4 °C 30.37in /  1028.3hPa East 0.9mph /  1.4km/h 8.0mph /  12.9km/h 37% 0.00in /  0mm 339.0 W/m2
08:28 58.5 °F /  14.7 °C 31.6 °F /  -0.2 °C 30.37in /  1028.3hPa Calm   7.0mph /  11.3km/h 36% 0.00in /  0mm 359.0 W/m2
08:34 59.2 °F /  15.1 °C 31.5 °F /  -0.3 °C 30.37in /  1028.3hPa Calm   3.0mph /  4.8km/h 35% 0.00in /  0mm 376.0 W/m2
08:40 59.9 °F /  15.5 °C 32.2 °F /  0.1 °C 30.37in /  1028.3hPa Calm   1.0mph /  1.6km/h 35% 0.00in /  0mm 396.0 W/m2
08:46 60.8 °F /  16 °C 32.2 °F /  0.1 °C 30.37in /  1028.3hPa Calm   6.0mph /  9.7km/h 34% 0.00in /  0mm 413.0 W/m2
08:52 61.3 °F /  16.3 °C 32.7 °F /  0.4 °C 30.37in /  1028.3hPa SE 2.0mph /  3.2km/h 4.0mph /  6.4km/h 34% 0.00in /  0mm 429.0 W/m2
08:58 62.1 °F /  16.7 °C 32.5 °F /  0.3 °C 30.37in /  1028.3hPa ENE 2.0mph /  3.2km/h 3.0mph /  4.8km/h 33% 0.00in /  0mm 446.0 W/m2
09:04 62.8 °F /  17.1 °C 32.5 °F /  0.3 °C 30.37in /  1028.3hPa Calm   2.0mph /  3.2km/h 32% 0.00in /  0mm 462.0 W/m2
09:10 63.5 °F /  17.5 °C 33.1 °F /  0.6 °C 30.37in /  1028.3hPa NE 0.9mph /  1.4km/h 1.0mph /  1.6km/h 32% 0.00in /  0mm 478.0 W/m2
09:16 64.0 °F /  17.8 °C 33.6 °F /  0.9 °C 30.37in /  1028.3hPa SE 2.9mph /  4.7km/h 3.0mph /  4.8km/h 32% 0.00in /  0mm 494.0 W/m2
09:22 64.8 °F /  18.2 °C 34.2 °F /  1.2 °C 30.36in /  1028hPa Calm   2.0mph /  3.2km/h 32% 0.00in /  0mm 506.0 W/m2
09:28 65.5 °F /  18.6 °C 34.0 °F /  1.1 °C 30.36in /  1028hPa Calm   1.0mph /  1.6km/h 31% 0.00in /  0mm 520.0 W/m2
09:36 65.7 °F /  18.7 °C 33.4 °F /  0.8 °C 30.36in /  1028hPa Calm     30% 0.00in /  0mm 541.0 W/m2
09:42 65.8 °F /  18.8 °C 35.2 °F /  1.8 °C 30.36in /  1028hPa Calm     32% 0.00in /  0mm 554.0 W/m2
09:48 66.7 °F /  19.3 °C 34.3 °F /  1.3 °C 30.36in /  1028hPa Calm   6.0mph /  9.7km/h 30% 0.00in /  0mm 566.0 W/m2
09:54 67.8 °F /  19.9 °C 34.3 °F /  1.3 °C 30.35in /  1027.7hPa Calm   3.0mph /  4.8km/h 29% 0.00in /  0mm 577.0 W/m2
10:00 68.2 °F /  20.1 °C 35.6 °F /  2 °C 30.35in /  1027.7hPa North 0.9mph /  1.4km/h 5.0mph /  8km/h 30% 0.00in /  0mm 589.0 W/m2
10:06 68.5 °F /  20.3 °C 35.1 °F /  1.7 °C 30.35in /  1027.7hPa Calm   1.0mph /  1.6km/h 29% 0.00in /  0mm 598.0 W/m2
10:12 68.4 °F /  20.2 °C 35.8 °F /  2.1 °C 30.35in /  1027.7hPa Calm   1.0mph /  1.6km/h 30% 0.00in /  0mm 606.0 W/m2
10:18 68.4 °F /  20.2 °C 35.8 °F /  2.1 °C 30.35in /  1027.7hPa Calm   1.0mph /  1.6km/h 30% 0.00in /  0mm 617.0 W/m2
10:24 68.5 °F /  20.3 °C 35.1 °F /  1.7 °C 30.35in /  1027.7hPa Calm   3.0mph /  4.8km/h 29% 0.00in /  0mm 626.0 W/m2
10:30 68.9 °F /  20.5 °C 35.4 °F /  1.9 °C 30.34in /  1027.3hPa Calm   4.0mph /  6.4km/h 29% 0.00in /  0mm 631.0 W/m2
10:36 69.4 °F /  20.8 °C 34.9 °F /  1.6 °C 30.34in /  1027.3hPa Calm   3.0mph /  4.8km/h 28% 0.00in /  0mm 642.0 W/m2
10:42 69.8 °F /  21 °C 35.2 °F /  1.8 °C 30.34in /  1027.3hPa Calm   3.0mph /  4.8km/h 28% 0.00in /  0mm 649.0 W/m2
10:48 69.6 °F /  20.9 °C 35.1 °F /  1.7 °C 30.34in /  1027.3hPa Calm   1.0mph /  1.6km/h 28% 0.00in /  0mm 654.0 W/m2
10:54 69.6 °F /  20.9 °C 36.0 °F /  2.2 °C 30.33in /  1027hPa Calm   2.0mph /  3.2km/h 29% 0.00in /  0mm 661.0 W/m2
11:00 70.0 °F /  21.1 °C 36.3 °F /  2.4 °C 30.33in /  1027hPa Calm   2.0mph /  3.2km/h 29% 0.00in /  0mm 659.0 W/m2
11:06 70.2 °F /  21.2 °C 36.5 °F /  2.5 °C 30.33in /  1027hPa Calm   8.0mph /  12.9km/h 29% 0.00in /  0mm 670.0 W/m2
11:12 70.7 °F /  21.5 °C 35.1 °F /  1.7 °C 30.33in /  1027hPa Calm   6.0mph /  9.7km/h 27% 0.00in /  0mm 675.0 W/m2
11:18 71.1 °F /  21.7 °C 35.4 °F /  1.9 °C 30.32in /  1026.6hPa NE 0.9mph /  1.4km/h 5.0mph /  8km/h 27% 0.00in /  0mm 675.0 W/m2
11:24 71.6 °F /  22 °C 35.8 °F /  2.1 °C 30.32in /  1026.6hPa Calm   3.0mph /  4.8km/h 27% 0.00in /  0mm 679.0 W/m2
11:30 72.0 °F /  22.2 °C 36.1 °F /  2.3 °C 30.32in /  1026.6hPa Calm   3.0mph /  4.8km/h 27% 0.00in /  0mm 684.0 W/m2
11:36 72.3 °F /  22.4 °C 35.6 °F /  2 °C 30.32in /  1026.6hPa Calm   4.0mph /  6.4km/h 26% 0.00in /  0mm 680.0 W/m2
11:42 72.7 °F /  22.6 °C 36.9 °F /  2.7 °C 30.32in /  1026.6hPa Calm   3.0mph /  4.8km/h 27% 0.00in /  0mm 680.0 W/m2
11:48 72.3 °F /  22.4 °C 35.6 °F /  2 °C 30.31in /  1026.3hPa Calm   4.0mph /  6.4km/h 26% 0.00in /  0mm 680.0 W/m2
11:54 72.3 °F /  22.4 °C 35.6 °F /  2 °C 30.31in /  1026.3hPa Calm   1.0mph /  1.6km/h 26% 0.00in /  0mm 677.0 W/m2
11:56 72.3 °F /  22.4 °C 34.5 °F /  1.4 °C 30.31in /  1026.3hPa WSW 2.9mph /  4.7km/h 6.0mph /  9.7km/h 25% 0.00in /  0mm 680.0 W/m2
12:02 72.1 °F /  22.3 °C 34.3 °F /  1.3 °C 30.31in /  1026.3hPa North 4.9mph /  7.9km/h 5.0mph /  8km/h 25% 0.00in /  0mm 675.0 W/m2
12:08 72.1 °F /  22.3 °C 35.4 °F /  1.9 °C 30.31in /  1026.3hPa Calm   1.0mph /  1.6km/h 26% 0.00in /  0mm 680.0 W/m2
12:14 72.3 °F /  22.4 °C 34.5 °F /  1.4 °C 30.30in /  1026hPa Calm   3.0mph /  4.8km/h 25% 0.00in /  0mm 671.0 W/m2
12:20 72.3 °F /  22.4 °C 33.4 °F /  0.8 °C 30.30in /  1026hPa SSE 0.9mph /  1.4km/h 2.0mph /  3.2km/h 24% 0.00in /  0mm 671.0 W/m2
12:26 72.7 °F /  22.6 °C 32.7 °F /  0.4 °C 30.29in /  1025.6hPa Calm   6.0mph /  9.7km/h 23% 0.00in /  0mm 671.0 W/m2
12:32 73.2 °F /  22.9 °C 33.3 °F /  0.7 °C 30.29in /  1025.6hPa NNW 0.9mph /  1.4km/h 7.0mph /  11.3km/h 23% 0.00in /  0mm 668.0 W/m2
12:38 73.2 °F /  22.9 °C 33.3 °F /  0.7 °C 30.29in /  1025.6hPa NNW 2.0mph /  3.2km/h 6.0mph /  9.7km/h 23% 0.00in /  0mm 659.0 W/m2
12:44 73.0 °F /  22.8 °C 33.1 °F /  0.6 °C 30.29in /  1025.6hPa Calm   1.0mph /  1.6km/h 23% 0.00in /  0mm 650.0 W/m2
12:50 72.7 °F /  22.6 °C 33.8 °F /  1 °C 30.28in /  1025.3hPa West 0.9mph /  1.4km/h 1.0mph /  1.6km/h 24% 0.00in /  0mm 643.0 W/m2
12:56 72.3 °F /  22.4 °C 33.4 °F /  0.8 °C 30.28in /  1025.3hPa Calm   5.0mph /  8km/h 24% 0.00in /  0mm 638.0 W/m2
13:02 72.7 °F /  22.6 °C 33.8 °F /  1 °C 30.28in /  1025.3hPa Calm   3.0mph /  4.8km/h 24% 0.00in /  0mm 631.0 W/m2
13:08 72.7 °F /  22.6 °C 32.7 °F /  0.4 °C 30.27in /  1024.9hPa Calm   5.0mph /  8km/h 23% 0.00in /  0mm 621.0 W/m2
13:21 72.3 °F /  22.4 °C 32.4 °F /  0.2 °C 30.27in /  1024.9hPa WSW 0.9mph /  1.4km/h 6.0mph /  9.7km/h 23% 0.00in /  0mm 598.0 W/m2
13:27 72.3 °F /  22.4 °C 33.4 °F /  0.8 °C 30.26in /  1024.6hPa West 2.0mph /  3.2km/h 3.0mph /  4.8km/h 24% 0.00in /  0mm 592.0 W/m2
13:33 72.5 °F /  22.5 °C 32.5 °F /  0.3 °C 30.26in /  1024.6hPa Calm   1.0mph /  1.6km/h 23% 0.00in /  0mm 582.0 W/m2
13:39 72.3 °F /  22.4 °C 32.4 °F /  0.2 °C 30.26in /  1024.6hPa WSW 0.9mph /  1.4km/h 3.0mph /  4.8km/h 23% 0.00in /  0mm 570.0 W/m2
13:45 72.3 °F /  22.4 °C 32.4 °F /  0.2 °C 30.26in /  1024.6hPa Calm   8.0mph /  12.9km/h 23% 0.00in /  0mm 561.0 W/m2
13:51 72.0 °F /  22.2 °C 33.3 °F /  0.7 °C 30.26in /  1024.6hPa SW 2.0mph /  3.2km/h 9.0mph /  14.5km/h 24% 0.00in /  0mm 536.0 W/m2
13:57 72.0 °F /  22.2 °C 33.3 °F /  0.7 °C 30.26in /  1024.6hPa NNE 4.0mph /  6.4km/h 8.0mph /  12.9km/h 24% 0.00in /  0mm 527.0 W/m2
14:03 72.1 °F /  22.3 °C 33.4 °F /  0.8 °C 30.26in /  1024.6hPa West 2.9mph /  4.7km/h 5.0mph /  8km/h 24% 0.00in /  0mm 522.0 W/m2
14:09 72.7 °F /  22.6 °C 32.7 °F /  0.4 °C 30.26in /  1024.6hPa NE 0.9mph /  1.4km/h 4.0mph /  6.4km/h 23% 0.00in /  0mm 508.0 W/m2
14:15 72.9 °F /  22.7 °C 32.9 °F /  0.5 °C 30.26in /  1024.6hPa Calm   4.0mph /  6.4km/h 23% 0.00in /  0mm 494.0 W/m2
14:22 72.9 °F /  22.7 °C 32.9 °F /  0.5 °C 30.26in /  1024.6hPa Calm     23% 0.00in /  0mm 482.0 W/m2
14:28 73.0 °F /  22.8 °C 33.1 °F /  0.6 °C 30.26in /  1024.6hPa Calm   3.0mph /  4.8km/h 23% 0.00in /  0mm 462.0 W/m2
14:34 72.9 °F /  22.7 °C 32.9 °F /  0.5 °C 30.26in /  1024.6hPa NNW 6.0mph /  9.7km/h 6.0mph /  9.7km/h 23% 0.00in /  0mm 446.0 W/m2
14:40 72.7 °F /  22.6 °C 31.6 °F /  -0.2 °C 30.26in /  1024.6hPa NNE 2.0mph /  3.2km/h 4.0mph /  6.4km/h 22% 0.00in /  0mm 427.0 W/m2
14:46 72.7 °F /  22.6 °C 32.7 °F /  0.4 °C 30.26in /  1024.6hPa Calm   3.0mph /  4.8km/h 23% 0.00in /  0mm 413.0 W/m2
14:52 72.7 °F /  22.6 °C 32.7 °F /  0.4 °C 30.25in /  1024.3hPa Calm   2.0mph /  3.2km/h 23% 0.00in /  0mm 396.0 W/m2
14:58 72.7 °F /  22.6 °C 32.7 °F /  0.4 °C 30.26in /  1024.6hPa NNW 4.0mph /  6.4km/h 4.0mph /  6.4km/h 23% 0.00in /  0mm 378.0 W/m2
15:04 72.5 °F /  22.5 °C 32.5 °F /  0.3 °C 30.25in /  1024.3hPa NNW 4.0mph /  6.4km/h 6.0mph /  9.7km/h 23% 0.00in /  0mm 366.0 W/m2
15:10 72.3 °F /  22.4 °C 31.3 °F /  -0.4 °C 30.25in /  1024.3hPa Calm   4.0mph /  6.4km/h 22% 0.00in /  0mm 346.0 W/m2
15:16 72.0 °F /  22.2 °C 32.2 °F /  0.1 °C 30.25in /  1024.3hPa NW 2.9mph /  4.7km/h 4.0mph /  6.4km/h 23% 0.00in /  0mm 322.0 W/m2
15:23 72.0 °F /  22.2 °C 32.2 °F /  0.1 °C 30.25in /  1024.3hPa NNE 2.0mph /  3.2km/h 5.0mph /  8km/h 23% 0.00in /  0mm 47.0 W/m2
15:29 71.8 °F /  22.1 °C 32.0 °F /  0 °C 30.25in /  1024.3hPa Calm   1.0mph /  1.6km/h 23% 0.00in /  0mm 44.0 W/m2
15:35 71.2 °F /  21.8 °C 32.5 °F /  0.3 °C 30.25in /  1024.3hPa NNW 2.0mph /  3.2km/h 3.0mph /  4.8km/h 24% 0.00in /  0mm 42.0 W/m2
15:41 71.1 °F /  21.7 °C 31.5 °F /  -0.3 °C 30.25in /  1024.3hPa Calm   6.0mph /  9.7km/h 23% 0.00in /  0mm 39.0 W/m2
15:47 70.9 °F /  21.6 °C 32.4 °F /  0.2 °C 30.25in /  1024.3hPa Calm   2.0mph /  3.2km/h 24% 0.00in /  0mm 37.0 W/m2
15:53 70.5 °F /  21.4 °C 32.0 °F /  0 °C 30.25in /  1024.3hPa WSW 0.9mph /  1.4km/h 7.0mph /  11.3km/h 24% 0.00in /  0mm 35.0 W/m2
15:59 70.3 °F /  21.3 °C 32.9 °F /  0.5 °C 30.25in /  1024.3hPa Calm   2.0mph /  3.2km/h 25% 0.00in /  0mm 32.0 W/m2
16:05 70.2 °F /  21.2 °C 32.7 °F /  0.4 °C 30.25in /  1024.3hPa Calm   1.0mph /  1.6km/h 25% 0.00in /  0mm 28.0 W/m2
16:11 69.8 °F /  21 °C 32.4 °F /  0.2 °C 30.25in /  1024.3hPa NNW 2.0mph /  3.2km/h 4.0mph /  6.4km/h 25% 0.00in /  0mm 25.0 W/m2
16:17 69.4 °F /  20.8 °C 32.0 °F /  0 °C 30.25in /  1024.3hPa WNW 0.9mph /  1.4km/h 6.0mph /  9.7km/h 25% 0.00in /  0mm 23.0 W/m2
16:23 69.3 °F /  20.7 °C 32.0 °F /  0 °C 30.26in /  1024.6hPa Calm   2.0mph /  3.2km/h 25% 0.00in /  0mm 21.0 W/m2
16:30 69.1 °F /  20.6 °C 31.8 °F /  -0.1 °C 30.25in /  1024.3hPa Calm   4.0mph /  6.4km/h 25% 0.00in /  0mm 21.0 W/m2
16:36 68.5 °F /  20.3 °C 31.3 °F /  -0.4 °C 30.26in /  1024.6hPa Calm     25% 0.00in /  0mm 19.0 W/m2
16:42 68.4 °F /  20.2 °C 32.2 °F /  0.1 °C 30.26in /  1024.6hPa Calm   2.0mph /  3.2km/h 26% 0.00in /  0mm 18.0 W/m2
16:48 67.8 °F /  19.9 °C 33.4 °F /  0.8 °C 30.26in /  1024.6hPa Calm     28% 0.00in /  0mm 14.0 W/m2
16:54 67.5 °F /  19.7 °C 33.3 °F /  0.7 °C 30.26in /  1024.6hPa Calm     28% 0.00in /  0mm 12.0 W/m2
17:00 66.9 °F /  19.4 °C 33.6 °F /  0.9 °C 30.26in /  1024.6hPa Calm     29% 0.00in /  0mm 11.0 W/m2
17:06 66.4 °F /  19.1 °C 34.0 °F /  1.1 °C 30.27in /  1024.9hPa Calm     30% 0.00in /  0mm 7.0 W/m2
17:12 65.7 °F /  18.7 °C 32.5 °F /  0.3 °C 30.27in /  1024.9hPa Calm     29% 0.00in /  0mm 5.0 W/m2
17:19 65.1 °F /  18.4 °C 32.9 °F /  0.5 °C 30.27in /  1024.9hPa Calm     30% 0.00in /  0mm 0.0 W/m2
17:25 64.6 °F /  18.1 °C 32.4 °F /  0.2 °C 30.27in /  1024.9hPa Calm     30% 0.00in /  0mm 0.0 W/m2
17:31 64.0 °F /  17.8 °C 32.7 °F /  0.4 °C 30.27in /  1024.9hPa Calm     31% 0.00in /  0mm 0.0 W/m2
17:37 63.3 °F /  17.4 °C 32.2 °F /  0.1 °C 30.27in /  1024.9hPa Calm     31% 0.00in /  0mm 0.0 W/m2
17:43 62.8 °F /  17.1 °C 32.5 °F /  0.3 °C 30.28in /  1025.3hPa Calm     32% 0.00in /  0mm 0.0 W/m2
17:49 62.1 °F /  16.7 °C 32.5 °F /  0.3 °C 30.28in /  1025.3hPa Calm     33% 0.00in /  0mm 0.0 W/m2
17:55 61.3 °F /  16.3 °C 32.7 °F /  0.4 °C 30.28in /  1025.3hPa Calm     34% 0.00in /  0mm 0.0 W/m2
18:02 60.6 °F /  15.9 °C 32.9 °F /  0.5 °C 30.28in /  1025.3hPa Calm     35% 0.00in /  0mm 0.0 W/m2
18:08 60.1 °F /  15.6 °C 31.6 °F /  -0.2 °C 30.28in /  1025.3hPa Calm   1.0mph /  1.6km/h 34% 0.00in /  0mm 0.0 W/m2
18:14 59.2 °F /  15.1 °C 32.2 °F /  0.1 °C 30.28in /  1025.3hPa Calm     36% 0.00in /  0mm 0.0 W/m2
18:20 58.6 °F /  14.8 °C 31.8 °F /  -0.1 °C 30.29in /  1025.6hPa Calm     36% 0.00in /  0mm 0.0 W/m2
18:26 58.1 °F /  14.5 °C 32.0 °F /  0 °C 30.29in /  1025.6hPa Calm     37% 0.00in /  0mm 0.0 W/m2
18:32 57.6 °F /  14.2 °C 32.2 °F /  0.1 °C 30.29in /  1025.6hPa Calm     38% 0.00in /  0mm 0.0 W/m2
18:38 57.0 °F /  13.9 °C 31.6 °F /  -0.2 °C 30.29in /  1025.6hPa Calm     38% 0.00in /  0mm 0.0 W/m2
18:44 56.7 °F /  13.7 °C 32.0 °F /  0 °C 30.29in /  1025.6hPa Calm     39% 0.00in /  0mm 0.0 W/m2
18:50 56.1 °F /  13.4 °C 31.5 °F /  -0.3 °C 30.29in /  1025.6hPa Calm     39% 0.00in /  0mm 0.0 W/m2
18:57 55.9 °F /  13.3 °C 31.3 °F /  -0.4 °C 30.29in /  1025.6hPa Calm     39% 0.00in /  0mm 0.0 W/m2
19:03 55.8 °F /  13.2 °C 31.1 °F /  -0.5 °C 30.30in /  1026hPa Calm     39% 0.00in /  0mm 0.0 W/m2
19:09 55.4 °F /  13 °C 31.5 °F /  -0.3 °C 30.30in /  1026hPa Calm     40% 0.00in /  0mm 0.0 W/m2
19:15 55.0 °F /  12.8 °C 31.1 °F /  -0.5 °C 30.30in /  1026hPa Calm     40% 0.00in /  0mm 0.0 W/m2
19:21 54.7 °F /  12.6 °C 31.5 °F /  -0.3 °C 30.30in /  1026hPa Calm     41% 0.00in /  0mm 0.0 W/m2
19:27 54.1 °F /  12.3 °C 30.9 °F /  -0.6 °C 30.31in /  1026.3hPa Calm     41% 0.00in /  0mm 0.0 W/m2
19:34 54.0 °F /  12.2 °C 30.7 °F /  -0.7 °C 30.31in /  1026.3hPa Calm     41% 0.00in /  0mm 0.0 W/m2
19:40 54.0 °F /  12.2 °C 31.5 °F /  -0.3 °C 30.31in /  1026.3hPa East 0.9mph /  1.4km/h 2.0mph /  3.2km/h 42% 0.00in /  0mm 0.0 W/m2
19:46 54.0 °F /  12.2 °C 31.5 °F /  -0.3 °C 30.31in /  1026.3hPa Calm   1.0mph /  1.6km/h 42% 0.00in /  0mm 0.0 W/m2
19:52 53.8 °F /  12.1 °C 31.3 °F /  -0.4 °C 30.31in /  1026.3hPa Calm   2.0mph /  3.2km/h 42% 0.00in /  0mm 0.0 W/m2
19:58 53.8 °F /  12.1 °C 31.3 °F /  -0.4 °C 30.32in /  1026.6hPa ENE 0.9mph /  1.4km/h 3.0mph /  4.8km/h 42% 0.00in /  0mm 0.0 W/m2
20:04 53.8 °F /  12.1 °C 31.3 °F /  -0.4 °C 30.32in /  1026.6hPa Calm   3.0mph /  4.8km/h 42% 0.00in /  0mm 0.0 W/m2
20:10 53.8 °F /  12.1 °C 31.3 °F /  -0.4 °C 30.32in /  1026.6hPa Calm   1.0mph /  1.6km/h 42% 0.00in /  0mm 0.0 W/m2
20:17 53.8 °F /  12.1 °C 31.3 °F /  -0.4 °C 30.32in /  1026.6hPa Calm   2.0mph /  3.2km/h 42% 0.00in /  0mm 0.0 W/m2
20:23 53.6 °F /  12 °C 31.1 °F /  -0.5 °C 30.32in /  1026.6hPa Calm   2.0mph /  3.2km/h 42% 0.00in /  0mm 0.0 W/m2
20:29 53.6 °F /  12 °C 31.6 °F /  -0.2 °C 30.32in /  1026.6hPa NE 0.9mph /  1.4km/h 1.0mph /  1.6km/h 43% 0.00in /  0mm 0.0 W/m2
20:35 53.6 °F /  12 °C 31.1 °F /  -0.5 °C 30.32in /  1026.6hPa Calm   1.0mph /  1.6km/h 42% 0.00in /  0mm 0.0 W/m2
20:41 53.4 °F /  11.9 °C 31.5 °F /  -0.3 °C 30.32in /  1026.6hPa Calm   2.0mph /  3.2km/h 43% 0.00in /  0mm 0.0 W/m2
20:47 53.4 °F /  11.9 °C 31.5 °F /  -0.3 °C 30.32in /  1026.6hPa Calm   3.0mph /  4.8km/h 43% 0.00in /  0mm 0.0 W/m2
20:53 53.4 °F /  11.9 °C 31.5 °F /  -0.3 °C 30.32in /  1026.6hPa Calm   2.0mph /  3.2km/h 43% 0.00in /  0mm 0.0 W/m2
20:55 53.4 °F /  11.9 °C 31.5 °F /  -0.3 °C 30.32in /  1026.6hPa Calm   1.0mph /  1.6km/h 43% 0.00in /  0mm 0.0 W/m2
21:02 53.4 °F /  11.9 °C 31.5 °F /  -0.3 °C 30.32in /  1026.6hPa Calm   2.0mph /  3.2km/h 43% 0.00in /  0mm 0.0 W/m2
21:08 53.2 °F /  11.8 °C 31.3 °F /  -0.4 °C 30.32in /  1026.6hPa Calm   2.0mph /  3.2km/h 43% 0.00in /  0mm 0.0 W/m2
21:14 53.2 °F /  11.8 °C 31.3 °F /  -0.4 °C 30.32in /  1026.6hPa Calm   1.0mph /  1.6km/h 43% 0.00in /  0mm 0.0 W/m2
21:20 53.1 °F /  11.7 °C 31.1 °F /  -0.5 °C 30.32in /  1026.6hPa Calm     43% 0.00in /  0mm 0.0 W/m2
21:26 52.9 °F /  11.6 °C 30.9 °F /  -0.6 °C 30.32in /  1026.6hPa Calm     43% 0.00in /  0mm 0.0 W/m2
21:32 52.5 °F /  11.4 °C 31.3 °F /  -0.4 °C 30.32in /  1026.6hPa Calm     44% 0.00in /  0mm 0.0 W/m2
21:38 52.5 °F /  11.4 °C 31.3 °F /  -0.4 °C 30.32in /  1026.6hPa Calm     44% 0.00in /  0mm 0.0 W/m2
21:45 52.3 °F /  11.3 °C 31.1 °F /  -0.5 °C 30.32in /  1026.6hPa Calm     44% 0.00in /  0mm 0.0 W/m2
21:51 52.3 °F /  11.3 °C 31.1 °F /  -0.5 °C 30.32in /  1026.6hPa Calm     44% 0.00in /  0mm 0.0 W/m2
21:57 52.2 °F /  11.2 °C 30.9 °F /  -0.6 °C 30.33in /  1027hPa Calm     44% 0.00in /  0mm 0.0 W/m2
22:03 52.0 °F /  11.1 °C 30.7 °F /  -0.7 °C 30.33in /  1027hPa Calm     44% 0.00in /  0mm 0.0 W/m2
22:09 52.0 °F /  11.1 °C 31.3 °F /  -0.4 °C 30.33in /  1027hPa Calm     45% 0.00in /  0mm 0.0 W/m2
22:15 51.6 °F /  10.9 °C 31.5 °F /  -0.3 °C 30.33in /  1027hPa Calm     46% 0.00in /  0mm 0.0 W/m2
22:21 51.3 °F /  10.7 °C 31.1 °F /  -0.5 °C 30.33in /  1027hPa Calm     46% 0.00in /  0mm 0.0 W/m2
22:28 50.7 °F /  10.4 °C 31.3 °F /  -0.4 °C 30.33in /  1027hPa Calm     47% 0.00in /  0mm 0.0 W/m2
22:34 50.4 °F /  10.2 °C 30.9 °F /  -0.6 °C 30.33in /  1027hPa Calm     47% 0.00in /  0mm 0.0 W/m2
22:40 50.2 °F /  10.1 °C 31.3 °F /  -0.4 °C 30.33in /  1027hPa Calm     48% 0.00in /  0mm 0.0 W/m2
22:46 49.8 °F /  9.9 °C 30.9 °F /  -0.6 °C 30.33in /  1027hPa Calm     48% 0.00in /  0mm 0.0 W/m2
22:52 49.6 °F /  9.8 °C 31.3 °F /  -0.4 °C 30.33in /  1027hPa Calm   1.0mph /  1.6km/h 49% 0.00in /  0mm 0.0 W/m2
22:58 49.6 °F /  9.8 °C 31.3 °F /  -0.4 °C 30.33in /  1027hPa Calm     49% 0.00in /  0mm 0.0 W/m2
23:04 49.6 °F /  9.8 °C 31.3 °F /  -0.4 °C 30.33in /  1027hPa Calm     49% 0.00in /  0mm 0.0 W/m2
23:10 49.5 °F /  9.7 °C 31.1 °F /  -0.5 °C 30.33in /  1027hPa Calm     49% 0.00in /  0mm 0.0 W/m2
23:16 49.3 °F /  9.6 °C 31.5 °F /  -0.3 °C 30.33in /  1027hPa Calm     50% 0.00in /  0mm 0.0 W/m2
23:22 49.1 °F /  9.5 °C 31.8 °F /  -0.1 °C 30.33in /  1027hPa Calm     51% 0.00in /  0mm 0.0 W/m2
23:29 48.9 °F /  9.4 °C 31.1 °F /  -0.5 °C 30.33in /  1027hPa Calm     50% 0.00in /  0mm 0.0 W/m2
23:35 48.7 °F /  9.3 °C 31.5 °F /  -0.3 °C 30.33in /  1027hPa Calm     51% 0.00in /  0mm 0.0 W/m2
23:41 48.7 °F /  9.3 °C 30.9 °F /  -0.6 °C 30.32in /  1026.6hPa Calm     50% 0.00in /  0mm 0.0 W/m2
23:47 48.7 °F /  9.3 °C 31.5 °F /  -0.3 °C 30.33in /  1027hPa Calm     51% 0.00in /  0mm 0.0 W/m2
23:53 48.7 °F /  9.3 °C 30.9 °F /  -0.6 °C 30.32in /  1026.6hPa Calm   1.0mph /  1.6km/h 50% 0.00in /  0mm 0.0 W/m2
23:59 48.7 °F /  9.3 °C 30.9 °F /  -0.6 °C 30.32in /  1026.6hPa Calm   3.0mph /  4.8km/h 50% 0.00in /  0mm 0.0 W/m2
Olympia, Windhoek, Namibia
Compliments of Weather Underground - 3 mb